sensor_id;sensor_type;location;lat;lon;timestamp;temperature;humidity
22114;DHT22;11223;49.968;9.062;2023-03-23T00:00:09;11.80;99.90
22114;DHT22;11223;49.968;9.062;2023-03-23T00:02:35;11.80;99.90
22114;DHT22;11223;49.968;9.062;2023-03-23T00:05:07;11.70;99.90
22114;DHT22;11223;49.968;9.062;2023-03-23T00:07:33;11.80;99.90
22114;DHT22;11223;49.968;9.062;2023-03-23T00:09:59;11.80;99.90
22114;DHT22;11223;49.968;9.062;2023-03-23T00:12:30;12.00;99.90
22114;DHT22;11223;49.968;9.062;2023-03-23T00:15:04;12.10;99.90
22114;DHT22;11223;49.968;9.062;2023-03-23T00:17:31;12.20;99.90
22114;DHT22;11223;49.968;9.062;2023-03-23T00:19:59;12.20;99.90
22114;DHT22;11223;49.968;9.062;2023-03-23T00:22:27;12.10;99.90
22114;DHT22;11223;49.968;9.062;2023-03-23T00:24:54;12.10;99.90
22114;DHT22;11223;49.968;9.062;2023-03-23T00:27:20;12.10;99.90
22114;DHT22;11223;49.968;9.062;2023-03-23T00:29:51;12.10;99.90
22114;DHT22;11223;49.968;9.062;2023-03-23T00:32:24;12.10;99.90
22114;DHT22;11223;49.968;9.062;2023-03-23T00:34:57;12.10;99.90
22114;DHT22;11223;49.968;9.062;2023-03-23T00:37:24;12.20;99.90
22114;DHT22;11223;49.968;9.062;2023-03-23T00:39:50;12.20;99.90
22114;DHT22;11223;49.968;9.062;2023-03-23T00:42:17;12.20;99.90
22114;DHT22;11223;49.968;9.062;2023-03-23T00:44:43;12.20;99.90
22114;DHT22;11223;49.968;9.062;2023-03-23T00:47:10;12.20;99.90
22114;DHT22;11223;49.968;9.062;2023-03-23T00:49:36;12.20;99.90
22114;DHT22;11223;49.968;9.062;2023-03-23T00:52:03;12.20;99.90
22114;DHT22;11223;49.968;9.062;2023-03-23T00:54:29;12.20;99.90
22114;DHT22;11223;49.968;9.062;2023-03-23T00:56:55;12.20;99.90
22114;DHT22;11223;49.968;9.062;2023-03-23T00:59:21;12.20;99.90
22114;DHT22;11223;49.968;9.062;2023-03-23T01:01:49;12.20;99.90
22114;DHT22;11223;49.968;9.062;2023-03-23T01:04:15;12.20;99.90
22114;DHT22;11223;49.968;9.062;2023-03-23T01:06:42;12.30;99.90
22114;DHT22;11223;49.968;9.062;2023-03-23T01:09:11;12.30;99.90
22114;DHT22;11223;49.968;9.062;2023-03-23T01:11:43;12.30;99.90
22114;DHT22;11223;49.968;9.062;2023-03-23T01:14:10;12.30;99.90
22114;DHT22;11223;49.968;9.062;2023-03-23T01:16:35;12.30;99.90
22114;DHT22;11223;49.968;9.062;2023-03-23T01:19:01;12.30;99.90
22114;DHT22;11223;49.968;9.062;2023-03-23T01:21:27;12.30;99.90
22114;DHT22;11223;49.968;9.062;2023-03-23T01:23:53;12.30;99.90
22114;DHT22;11223;49.968;9.062;2023-03-23T01:26:21;12.30;99.90
22114;DHT22;11223;49.968;9.062;2023-03-23T01:28:47;12.20;99.90
22114;DHT22;11223;49.968;9.062;2023-03-23T01:31:19;12.20;99.90
22114;DHT22;11223;49.968;9.062;2023-03-23T01:33:45;12.20;99.90
22114;DHT22;11223;49.968;9.062;2023-03-23T01:36:13;12.20;99.90
22114;DHT22;11223;49.968;9.062;2023-03-23T01:38:44;12.10;99.90
22114;DHT22;11223;49.968;9.062;2023-03-23T01:41:10;12.20;99.90
22114;DHT22;11223;49.968;9.062;2023-03-23T01:43:52;12.20;99.90
22114;DHT22;11223;49.968;9.062;2023-03-23T01:46:18;12.20;99.90
22114;DHT22;11223;49.968;9.062;2023-03-23T01:48:44;12.20;99.90
22114;DHT22;11223;49.968;9.062;2023-03-23T01:51:14;12.30;99.90
22114;DHT22;11223;49.968;9.062;2023-03-23T01:53:54;12.30;99.90
22114;DHT22;11223;49.968;9.062;2023-03-23T01:56:24;12.40;99.90
22114;DHT22;11223;49.968;9.062;2023-03-23T01:58:53;12.50;99.90
22114;DHT22;11223;49.968;9.062;2023-03-23T02:01:21;12.50;99.90
22114;DHT22;11223;49.968;9.062;2023-03-23T02:03:47;12.50;99.90
22114;DHT22;11223;49.968;9.062;2023-03-23T02:06:14;12.60;99.90
22114;DHT22;11223;49.968;9.062;2023-03-23T02:08:41;12.60;99.90
22114;DHT22;11223;49.968;9.062;2023-03-23T02:11:17;12.60;99.90
22114;DHT22;11223;49.968;9.062;2023-03-23T02:13:44;12.60;99.90
22114;DHT22;11223;49.968;9.062;2023-03-23T02:18:54;12.50;99.90
22114;DHT22;11223;49.968;9.062;2023-03-23T02:21:58;12.60;99.90
22114;DHT22;11223;49.968;9.062;2023-03-23T02:24:55;12.60;99.90
22114;DHT22;11223;49.968;9.062;2023-03-23T02:33:36;12.50;99.90
22114;DHT22;11223;49.968;9.062;2023-03-23T02:36:25;12.50;99.90
22114;DHT22;11223;49.968;9.062;2023-03-23T02:39:09;12.60;99.90
22114;DHT22;11223;49.968;9.062;2023-03-23T02:42:02;12.70;99.90
22114;DHT22;11223;49.968;9.062;2023-03-23T02:44:29;12.70;99.90
22114;DHT22;11223;49.968;9.062;2023-03-23T02:46:57;12.70;99.90
22114;DHT22;11223;49.968;9.062;2023-03-23T02:49:25;12.70;99.90
22114;DHT22;11223;49.968;9.062;2023-03-23T02:51:52;12.70;99.90
22114;DHT22;11223;49.968;9.062;2023-03-23T02:54:20;12.70;99.90
22114;DHT22;11223;49.968;9.062;2023-03-23T02:56:48;12.60;99.90
22114;DHT22;11223;49.968;9.062;2023-03-23T02:59:14;12.70;99.90
22114;DHT22;11223;49.968;9.062;2023-03-23T03:04:11;12.70;99.90
22114;DHT22;11223;49.968;9.062;2023-03-23T03:15:41;12.50;99.90
22114;DHT22;11223;49.968;9.062;2023-03-23T03:18:24;12.50;99.90
22114;DHT22;11223;49.968;9.062;2023-03-23T03:20:56;12.50;99.90
22114;DHT22;11223;49.968;9.062;2023-03-23T03:23:24;12.50;99.90
22114;DHT22;11223;49.968;9.062;2023-03-23T03:25:52;12.40;99.90
22114;DHT22;11223;49.968;9.062;2023-03-23T03:28:19;12.40;99.90
22114;DHT22;11223;49.968;9.062;2023-03-23T03:30:52;12.30;99.90
22114;DHT22;11223;49.968;9.062;2023-03-23T03:33:19;12.20;99.90
22114;DHT22;11223;49.968;9.062;2023-03-23T03:35:46;12.20;99.90
22114;DHT22;11223;49.968;9.062;2023-03-23T03:38:12;12.00;99.90
22114;DHT22;11223;49.968;9.062;2023-03-23T03:40:38;12.00;99.90
22114;DHT22;11223;49.968;9.062;2023-03-23T03:43:04;11.90;99.90
22114;DHT22;11223;49.968;9.062;2023-03-23T03:45:31;11.80;99.90
22114;DHT22;11223;49.968;9.062;2023-03-23T03:47:56;11.70;99.90
22114;DHT22;11223;49.968;9.062;2023-03-23T03:50:22;11.60;99.90
22114;DHT22;11223;49.968;9.062;2023-03-23T03:52:48;11.60;99.90
22114;DHT22;11223;49.968;9.062;2023-03-23T03:55:14;11.50;99.90
22114;DHT22;11223;49.968;9.062;2023-03-23T03:57:42;11.40;99.90
22114;DHT22;11223;49.968;9.062;2023-03-23T04:00:10;11.40;99.90
22114;DHT22;11223;49.968;9.062;2023-03-23T04:02:40;11.30;99.90
22114;DHT22;11223;49.968;9.062;2023-03-23T04:05:06;11.30;99.90
22114;DHT22;11223;49.968;9.062;2023-03-23T04:07:32;11.30;99.90
22114;DHT22;11223;49.968;9.062;2023-03-23T04:09:58;11.20;99.90
22114;DHT22;11223;49.968;9.062;2023-03-23T04:12:23;11.20;99.90
22114;DHT22;11223;49.968;9.062;2023-03-23T04:14:49;11.20;99.90
22114;DHT22;11223;49.968;9.062;2023-03-23T04:17:15;11.10;99.90
22114;DHT22;11223;49.968;9.062;2023-03-23T04:19:42;11.10;99.90
22114;DHT22;11223;49.968;9.062;2023-03-23T04:22:07;11.10;99.90
22114;DHT22;11223;49.968;9.062;2023-03-23T04:24:33;11.10;99.90
22114;DHT22;11223;49.968;9.062;2023-03-23T04:27:00;11.00;99.90
22114;DHT22;11223;49.968;9.062;2023-03-23T04:29:27;11.00;99.90
22114;DHT22;11223;49.968;9.062;2023-03-23T04:31:52;11.00;99.90
22114;DHT22;11223;49.968;9.062;2023-03-23T04:34:20;11.00;99.90
22114;DHT22;11223;49.968;9.062;2023-03-23T04:36:46;11.00;99.90
22114;DHT22;11223;49.968;9.062;2023-03-23T04:39:12;10.90;99.90
22114;DHT22;11223;49.968;9.062;2023-03-23T04:41:41;11.00;99.90
22114;DHT22;11223;49.968;9.062;2023-03-23T04:44:07;10.90;99.90
22114;DHT22;11223;49.968;9.062;2023-03-23T04:46:33;10.90;99.90
22114;DHT22;11223;49.968;9.062;2023-03-23T04:48:59;10.90;99.90
22114;DHT22;11223;49.968;9.062;2023-03-23T04:51:26;10.90;99.90
22114;DHT22;11223;49.968;9.062;2023-03-23T04:53:53;10.90;99.90
22114;DHT22;11223;49.968;9.062;2023-03-23T04:56:19;10.80;99.90
22114;DHT22;11223;49.968;9.062;2023-03-23T04:58:46;10.80;99.90
22114;DHT22;11223;49.968;9.062;2023-03-23T05:01:12;10.80;99.90
22114;DHT22;11223;49.968;9.062;2023-03-23T05:03:41;10.80;99.90
22114;DHT22;11223;49.968;9.062;2023-03-23T05:06:07;10.80;99.90
22114;DHT22;11223;49.968;9.062;2023-03-23T05:08:33;10.80;99.90
22114;DHT22;11223;49.968;9.062;2023-03-23T05:11:00;10.80;99.90
22114;DHT22;11223;49.968;9.062;2023-03-23T05:13:27;10.80;99.90
22114;DHT22;11223;49.968;9.062;2023-03-23T05:15:53;10.80;99.90
22114;DHT22;11223;49.968;9.062;2023-03-23T05:18:20;10.80;99.90
22114;DHT22;11223;49.968;9.062;2023-03-23T05:20:47;10.80;99.90
22114;DHT22;11223;49.968;9.062;2023-03-23T05:23:14;10.80;99.90
22114;DHT22;11223;49.968;9.062;2023-03-23T05:25:40;10.80;99.90
22114;DHT22;11223;49.968;9.062;2023-03-23T05:28:14;10.80;99.90
22114;DHT22;11223;49.968;9.062;2023-03-23T05:30:40;10.80;99.90
22114;DHT22;11223;49.968;9.062;2023-03-23T05:33:05;10.80;99.90
22114;DHT22;11223;49.968;9.062;2023-03-23T05:35:31;10.80;99.90
22114;DHT22;11223;49.968;9.062;2023-03-23T05:37:57;10.80;99.90
22114;DHT22;11223;49.968;9.062;2023-03-23T05:40:23;10.80;99.90
22114;DHT22;11223;49.968;9.062;2023-03-23T05:42:51;10.80;99.90
22114;DHT22;11223;49.968;9.062;2023-03-23T05:45:17;10.80;99.90
22114;DHT22;11223;49.968;9.062;2023-03-23T05:47:43;10.80;99.90
22114;DHT22;11223;49.968;9.062;2023-03-23T05:50:09;10.80;99.90
22114;DHT22;11223;49.968;9.062;2023-03-23T05:52:36;10.90;99.90
22114;DHT22;11223;49.968;9.062;2023-03-23T05:55:02;10.90;99.90
22114;DHT22;11223;49.968;9.062;2023-03-23T05:57:29;10.90;99.90
22114;DHT22;11223;49.968;9.062;2023-03-23T05:59:55;11.00;99.90
22114;DHT22;11223;49.968;9.062;2023-03-23T06:02:21;11.00;99.90
22114;DHT22;11223;49.968;9.062;2023-03-23T06:04:48;11.00;99.90
22114;DHT22;11223;49.968;9.062;2023-03-23T06:07:14;11.00;99.90
22114;DHT22;11223;49.968;9.062;2023-03-23T06:09:40;11.00;99.90
22114;DHT22;11223;49.968;9.062;2023-03-23T06:12:07;11.10;99.90
22114;DHT22;11223;49.968;9.062;2023-03-23T06:14:33;11.20;99.90
22114;DHT22;11223;49.968;9.062;2023-03-23T06:16:59;11.20;99.90
22114;DHT22;11223;49.968;9.062;2023-03-23T06:19:24;11.30;99.90
22114;DHT22;11223;49.968;9.062;2023-03-23T06:21:54;11.40;99.90
22114;DHT22;11223;49.968;9.062;2023-03-23T06:24:19;11.40;99.90
22114;DHT22;11223;49.968;9.062;2023-03-23T06:26:46;11.50;99.90
22114;DHT22;11223;49.968;9.062;2023-03-23T06:29:13;11.50;99.90
22114;DHT22;11223;49.968;9.062;2023-03-23T06:31:45;11.50;99.90
22114;DHT22;11223;49.968;9.062;2023-03-23T06:34:11;11.50;99.90
22114;DHT22;11223;49.968;9.062;2023-03-23T06:36:37;11.50;99.90
22114;DHT22;11223;49.968;9.062;2023-03-23T06:39:04;11.60;99.90
22114;DHT22;11223;49.968;9.062;2023-03-23T06:41:33;11.50;99.90
22114;DHT22;11223;49.968;9.062;2023-03-23T06:43:59;11.50;99.90
22114;DHT22;11223;49.968;9.062;2023-03-23T06:46:26;11.50;99.90
22114;DHT22;11223;49.968;9.062;2023-03-23T06:48:52;11.50;99.90
22114;DHT22;11223;49.968;9.062;2023-03-23T06:51:19;11.50;99.90
22114;DHT22;11223;49.968;9.062;2023-03-23T06:53:45;11.40;99.90
22114;DHT22;11223;49.968;9.062;2023-03-23T06:56:12;11.40;99.90
22114;DHT22;11223;49.968;9.062;2023-03-23T06:58:38;11.40;99.90
22114;DHT22;11223;49.968;9.062;2023-03-23T07:01:05;11.40;99.90
22114;DHT22;11223;49.968;9.062;2023-03-23T07:03:31;11.40;99.90
22114;DHT22;11223;49.968;9.062;2023-03-23T07:05:57;11.40;99.90
22114;DHT22;11223;49.968;9.062;2023-03-23T07:08:24;11.50;99.90
22114;DHT22;11223;49.968;9.062;2023-03-23T07:10:54;11.50;99.90
22114;DHT22;11223;49.968;9.062;2023-03-23T07:13:21;11.50;99.90
22114;DHT22;11223;49.968;9.062;2023-03-23T07:15:47;11.50;99.90
22114;DHT22;11223;49.968;9.062;2023-03-23T07:18:13;11.40;99.90
22114;DHT22;11223;49.968;9.062;2023-03-23T07:20:39;11.40;99.90
22114;DHT22;11223;49.968;9.062;2023-03-23T07:23:04;11.40;99.90
22114;DHT22;11223;49.968;9.062;2023-03-23T07:25:34;11.40;99.90
22114;DHT22;11223;49.968;9.062;2023-03-23T07:28:00;11.50;99.90
22114;DHT22;11223;49.968;9.062;2023-03-23T07:30:26;11.50;99.90
22114;DHT22;11223;49.968;9.062;2023-03-23T07:32:54;11.60;99.90
22114;DHT22;11223;49.968;9.062;2023-03-23T07:35:20;11.60;99.90
22114;DHT22;11223;49.968;9.062;2023-03-23T07:37:46;11.70;99.90
22114;DHT22;11223;49.968;9.062;2023-03-23T07:40:14;11.80;99.90
22114;DHT22;11223;49.968;9.062;2023-03-23T07:42:44;11.90;99.90
22114;DHT22;11223;49.968;9.062;2023-03-23T07:45:11;12.10;99.90
22114;DHT22;11223;49.968;9.062;2023-03-23T07:47:37;12.20;99.90
22114;DHT22;11223;49.968;9.062;2023-03-23T07:50:04;12.20;99.90
22114;DHT22;11223;49.968;9.062;2023-03-23T07:52:30;12.30;99.90
22114;DHT22;11223;49.968;9.062;2023-03-23T07:54:56;12.40;99.90
22114;DHT22;11223;49.968;9.062;2023-03-23T07:57:22;12.50;99.90
22114;DHT22;11223;49.968;9.062;2023-03-23T07:59:47;12.50;99.90
22114;DHT22;11223;49.968;9.062;2023-03-23T08:02:13;12.50;99.90
22114;DHT22;11223;49.968;9.062;2023-03-23T08:04:39;12.50;99.90
22114;DHT22;11223;49.968;9.062;2023-03-23T08:07:05;12.50;99.90
22114;DHT22;11223;49.968;9.062;2023-03-23T08:09:31;12.50;99.90
22114;DHT22;11223;49.968;9.062;2023-03-23T08:11:56;12.50;99.90
22114;DHT22;11223;49.968;9.062;2023-03-23T08:14:23;12.50;99.90
22114;DHT22;11223;49.968;9.062;2023-03-23T08:16:51;12.50;99.90
22114;DHT22;11223;49.968;9.062;2023-03-23T08:19:17;12.60;99.90
22114;DHT22;11223;49.968;9.062;2023-03-23T08:21:43;12.70;99.90
22114;DHT22;11223;49.968;9.062;2023-03-23T08:24:09;12.70;99.90
22114;DHT22;11223;49.968;9.062;2023-03-23T08:26:36;12.90;99.90
22114;DHT22;11223;49.968;9.062;2023-03-23T08:29:03;13.00;99.90
22114;DHT22;11223;49.968;9.062;2023-03-23T08:31:29;13.00;99.90
22114;DHT22;11223;49.968;9.062;2023-03-23T08:33:55;13.00;99.90
22114;DHT22;11223;49.968;9.062;2023-03-23T08:36:22;13.00;99.90
22114;DHT22;11223;49.968;9.062;2023-03-23T08:38:48;13.00;99.90
22114;DHT22;11223;49.968;9.062;2023-03-23T08:41:17;13.00;99.90
22114;DHT22;11223;49.968;9.062;2023-03-23T08:43:42;13.00;99.90
22114;DHT22;11223;49.968;9.062;2023-03-23T08:46:09;13.00;99.90
22114;DHT22;11223;49.968;9.062;2023-03-23T08:48:37;13.00;99.90
22114;DHT22;11223;49.968;9.062;2023-03-23T08:51:04;13.00;99.90
22114;DHT22;11223;49.968;9.062;2023-03-23T08:53:30;13.00;99.90
22114;DHT22;11223;49.968;9.062;2023-03-23T08:56:02;12.90;99.90
22114;DHT22;11223;49.968;9.062;2023-03-23T08:58:28;12.90;99.90
22114;DHT22;11223;49.968;9.062;2023-03-23T09:00:54;12.90;99.90
22114;DHT22;11223;49.968;9.062;2023-03-23T09:03:20;12.90;99.90
22114;DHT22;11223;49.968;9.062;2023-03-23T09:05:46;12.90;99.90
22114;DHT22;11223;49.968;9.062;2023-03-23T09:08:12;12.90;99.90
22114;DHT22;11223;49.968;9.062;2023-03-23T09:10:38;12.90;99.90
22114;DHT22;11223;49.968;9.062;2023-03-23T09:13:04;13.00;99.90
22114;DHT22;11223;49.968;9.062;2023-03-23T09:15:31;13.10;99.90
22114;DHT22;11223;49.968;9.062;2023-03-23T09:17:57;13.20;99.90
22114;DHT22;11223;49.968;9.062;2023-03-23T09:20:24;13.20;99.90
22114;DHT22;11223;49.968;9.062;2023-03-23T09:22:53;13.30;99.90
22114;DHT22;11223;49.968;9.062;2023-03-23T09:25:22;13.30;99.90
22114;DHT22;11223;49.968;9.062;2023-03-23T09:27:53;13.30;99.90
22114;DHT22;11223;49.968;9.062;2023-03-23T09:30:29;13.30;99.90
22114;DHT22;11223;49.968;9.062;2023-03-23T09:32:56;13.30;99.90
22114;DHT22;11223;49.968;9.062;2023-03-23T09:35:22;13.30;99.90
22114;DHT22;11223;49.968;9.062;2023-03-23T09:37:50;13.30;99.90
22114;DHT22;11223;49.968;9.062;2023-03-23T09:40:24;13.30;99.90
22114;DHT22;11223;49.968;9.062;2023-03-23T09:45:45;13.30;99.90
22114;DHT22;11223;49.968;9.062;2023-03-23T09:48:51;13.40;99.90
22114;DHT22;11223;49.968;9.062;2023-03-23T09:51:47;13.50;99.90
22114;DHT22;11223;49.968;9.062;2023-03-23T09:54:36;13.40;99.90
22114;DHT22;11223;49.968;9.062;2023-03-23T09:57:03;13.50;99.90
22114;DHT22;11223;49.968;9.062;2023-03-23T09:59:53;13.60;99.90
22114;DHT22;11223;49.968;9.062;2023-03-23T10:02:35;13.70;99.90
22114;DHT22;11223;49.968;9.062;2023-03-23T10:05:37;13.90;99.90
22114;DHT22;11223;49.968;9.062;2023-03-23T10:08:36;14.20;99.90
22114;DHT22;11223;49.968;9.062;2023-03-23T10:16:10;15.10;99.90
22114;DHT22;11223;49.968;9.062;2023-03-23T10:18:41;15.30;99.90
22114;DHT22;11223;49.968;9.062;2023-03-23T10:21:12;15.40;99.90
22114;DHT22;11223;49.968;9.062;2023-03-23T10:23:44;15.30;99.90
22114;DHT22;11223;49.968;9.062;2023-03-23T10:28:52;15.20;99.90
22114;DHT22;11223;49.968;9.062;2023-03-23T10:31:24;15.20;99.90
22114;DHT22;11223;49.968;9.062;2023-03-23T10:33:53;15.20;99.90
22114;DHT22;11223;49.968;9.062;2023-03-23T10:36:30;15.10;99.90
22114;DHT22;11223;49.968;9.062;2023-03-23T10:39:17;15.00;99.90
22114;DHT22;11223;49.968;9.062;2023-03-23T10:41:43;15.00;99.90
22114;DHT22;11223;49.968;9.062;2023-03-23T10:44:15;15.00;99.90
22114;DHT22;11223;49.968;9.062;2023-03-23T10:49:33;14.90;99.90
22114;DHT22;11223;49.968;9.062;2023-03-23T10:55:09;14.90;99.90
22114;DHT22;11223;49.968;9.062;2023-03-23T10:57:37;14.90;99.90
22114;DHT22;11223;49.968;9.062;2023-03-23T11:00:21;14.90;99.90
22114;DHT22;11223;49.968;9.062;2023-03-23T11:05:47;15.10;99.90
22114;DHT22;11223;49.968;9.062;2023-03-23T11:08:19;15.10;99.90
22114;DHT22;11223;49.968;9.062;2023-03-23T11:10:52;15.10;99.90
22114;DHT22;11223;49.968;9.062;2023-03-23T11:13:20;15.20;99.90
22114;DHT22;11223;49.968;9.062;2023-03-23T11:15:48;15.10;99.90
22114;DHT22;11223;49.968;9.062;2023-03-23T11:18:37;15.00;99.90
22114;DHT22;11223;49.968;9.062;2023-03-23T11:21:05;14.90;99.90
22114;DHT22;11223;49.968;9.062;2023-03-23T11:23:34;14.80;99.90
22114;DHT22;11223;49.968;9.062;2023-03-23T11:26:13;14.80;99.90
22114;DHT22;11223;49.968;9.062;2023-03-23T11:29:14;14.80;99.90
22114;DHT22;11223;49.968;9.062;2023-03-23T11:32:05;14.80;99.90
22114;DHT22;11223;49.968;9.062;2023-03-23T11:34:32;14.90;99.90
22114;DHT22;11223;49.968;9.062;2023-03-23T11:40:23;15.10;99.90
22114;DHT22;11223;49.968;9.062;2023-03-23T11:48:35;15.20;99.90
22114;DHT22;11223;49.968;9.062;2023-03-23T11:51:17;15.20;99.90
22114;DHT22;11223;49.968;9.062;2023-03-23T11:53:59;15.20;99.90
22114;DHT22;11223;49.968;9.062;2023-03-23T11:58:59;15.40;99.90
22114;DHT22;11223;49.968;9.062;2023-03-23T12:01:51;15.60;99.90
22114;DHT22;11223;49.968;9.062;2023-03-23T12:04:39;15.70;99.90
22114;DHT22;11223;49.968;9.062;2023-03-23T12:12:40;16.10;99.90
22114;DHT22;11223;49.968;9.062;2023-03-23T12:15:30;16.20;99.90
22114;DHT22;11223;49.968;9.062;2023-03-23T12:18:24;16.20;99.90
22114;DHT22;11223;49.968;9.062;2023-03-23T12:21:05;16.20;99.90
22114;DHT22;11223;49.968;9.062;2023-03-23T12:23:45;16.20;99.90
22114;DHT22;11223;49.968;9.062;2023-03-23T12:26:31;16.10;99.90
22114;DHT22;11223;49.968;9.062;2023-03-23T12:32:22;15.80;99.90
22114;DHT22;11223;49.968;9.062;2023-03-23T12:35:04;15.60;99.90
22114;DHT22;11223;49.968;9.062;2023-03-23T12:42:53;15.70;99.90
22114;DHT22;11223;49.968;9.062;2023-03-23T12:48:45;15.80;99.90
22114;DHT22;11223;49.968;9.062;2023-03-23T12:51:31;15.70;99.90
22114;DHT22;11223;49.968;9.062;2023-03-23T12:54:00;15.60;99.90
22114;DHT22;11223;49.968;9.062;2023-03-23T12:56:54;15.50;99.90
22114;DHT22;11223;49.968;9.062;2023-03-23T13:05:29;15.50;99.90
22114;DHT22;11223;49.968;9.062;2023-03-23T13:08:16;15.70;99.90
22114;DHT22;11223;49.968;9.062;2023-03-23T13:10:49;15.90;99.90
22114;DHT22;11223;49.968;9.062;2023-03-23T13:13:41;16.10;99.90
22114;DHT22;11223;49.968;9.062;2023-03-23T13:19:17;17.00;99.90
22114;DHT22;11223;49.968;9.062;2023-03-23T13:22:23;17.30;99.90
22114;DHT22;11223;49.968;9.062;2023-03-23T13:24:53;17.50;99.90
22114;DHT22;11223;49.968;9.062;2023-03-23T13:27:23;17.60;99.90
22114;DHT22;11223;49.968;9.062;2023-03-23T13:29:51;17.70;99.90
22114;DHT22;11223;49.968;9.062;2023-03-23T13:32:18;17.80;99.90
22114;DHT22;11223;49.968;9.062;2023-03-23T13:34:46;17.70;99.90
22114;DHT22;11223;49.968;9.062;2023-03-23T13:37:24;17.70;99.90
22114;DHT22;11223;49.968;9.062;2023-03-23T13:42:54;17.30;99.90
22114;DHT22;11223;49.968;9.062;2023-03-23T13:45:22;17.20;99.90
22114;DHT22;11223;49.968;9.062;2023-03-23T13:47:49;17.20;99.90
22114;DHT22;11223;49.968;9.062;2023-03-23T13:50:28;17.20;99.90
22114;DHT22;11223;49.968;9.062;2023-03-23T13:52:59;17.20;99.90
22114;DHT22;11223;49.968;9.062;2023-03-23T14:13:41;16.50;99.90
22114;DHT22;11223;49.968;9.062;2023-03-23T14:16:31;16.30;99.90
22114;DHT22;11223;49.968;9.062;2023-03-23T14:19:00;16.20;99.90
22114;DHT22;11223;49.968;9.062;2023-03-23T14:21:38;16.20;99.90
22114;DHT22;11223;49.968;9.062;2023-03-23T14:24:29;16.20;99.90
22114;DHT22;11223;49.968;9.062;2023-03-23T14:27:22;16.20;99.90
22114;DHT22;11223;49.968;9.062;2023-03-23T14:30:02;16.20;99.90
22114;DHT22;11223;49.968;9.062;2023-03-23T14:32:30;16.20;99.90
22114;DHT22;11223;49.968;9.062;2023-03-23T14:34:58;16.20;99.90
22114;DHT22;11223;49.968;9.062;2023-03-23T14:37:25;16.10;99.90
22114;DHT22;11223;49.968;9.062;2023-03-23T14:39:53;16.10;99.90
22114;DHT22;11223;49.968;9.062;2023-03-23T14:42:27;16.00;99.90
22114;DHT22;11223;49.968;9.062;2023-03-23T14:44:53;15.90;99.90
22114;DHT22;11223;49.968;9.062;2023-03-23T14:47:20;15.90;99.90
22114;DHT22;11223;49.968;9.062;2023-03-23T14:49:47;15.80;99.90
22114;DHT22;11223;49.968;9.062;2023-03-23T14:52:17;15.70;99.90
22114;DHT22;11223;49.968;9.062;2023-03-23T14:54:44;15.70;99.90
22114;DHT22;11223;49.968;9.062;2023-03-23T14:57:13;15.60;99.90
22114;DHT22;11223;49.968;9.062;2023-03-23T14:59:46;15.50;99.90
22114;DHT22;11223;49.968;9.062;2023-03-23T15:02:18;15.50;99.90
22114;DHT22;11223;49.968;9.062;2023-03-23T15:04:47;15.40;99.90
22114;DHT22;11223;49.968;9.062;2023-03-23T15:07:14;15.30;99.90
22114;DHT22;11223;49.968;9.062;2023-03-23T15:09:43;15.30;99.90
22114;DHT22;11223;49.968;9.062;2023-03-23T15:12:20;15.20;99.90
22114;DHT22;11223;49.968;9.062;2023-03-23T15:14:55;15.20;99.90
22114;DHT22;11223;49.968;9.062;2023-03-23T15:17:27;15.10;99.90
22114;DHT22;11223;49.968;9.062;2023-03-23T15:19:54;15.10;99.90
22114;DHT22;11223;49.968;9.062;2023-03-23T15:22:26;15.00;99.90
22114;DHT22;11223;49.968;9.062;2023-03-23T15:25:11;14.90;99.90
22114;DHT22;11223;49.968;9.062;2023-03-23T15:27:52;14.90;99.90
22114;DHT22;11223;49.968;9.062;2023-03-23T15:33:13;14.80;99.90
22114;DHT22;11223;49.968;9.062;2023-03-23T15:35:44;14.70;99.90
22114;DHT22;11223;49.968;9.062;2023-03-23T15:38:31;14.70;99.90
22114;DHT22;11223;49.968;9.062;2023-03-23T15:41:01;14.70;99.90
22114;DHT22;11223;49.968;9.062;2023-03-23T15:43:27;14.70;99.90
22114;DHT22;11223;49.968;9.062;2023-03-23T15:45:55;14.70;99.90
22114;DHT22;11223;49.968;9.062;2023-03-23T15:48:22;14.70;99.90
22114;DHT22;11223;49.968;9.062;2023-03-23T15:50:49;14.70;99.90
22114;DHT22;11223;49.968;9.062;2023-03-23T15:53:33;14.70;99.90
22114;DHT22;11223;49.968;9.062;2023-03-23T15:56:01;14.70;99.90
22114;DHT22;11223;49.968;9.062;2023-03-23T15:58:28;14.70;99.90
22114;DHT22;11223;49.968;9.062;2023-03-23T16:00:54;14.60;99.90
22114;DHT22;11223;49.968;9.062;2023-03-23T16:03:24;14.60;99.90
22114;DHT22;11223;49.968;9.062;2023-03-23T16:05:52;14.60;99.90
22114;DHT22;11223;49.968;9.062;2023-03-23T16:08:18;14.60;99.90
22114;DHT22;11223;49.968;9.062;2023-03-23T16:10:44;14.60;99.90
22114;DHT22;11223;49.968;9.062;2023-03-23T16:13:09;14.50;99.90
22114;DHT22;11223;49.968;9.062;2023-03-23T16:15:35;14.50;99.90
22114;DHT22;11223;49.968;9.062;2023-03-23T16:18:01;14.50;99.90
22114;DHT22;11223;49.968;9.062;2023-03-23T16:20:27;14.50;99.90
22114;DHT22;11223;49.968;9.062;2023-03-23T16:22:53;14.40;99.90
22114;DHT22;11223;49.968;9.062;2023-03-23T16:25:19;14.40;99.90
22114;DHT22;11223;49.968;9.062;2023-03-23T16:27:45;14.30;99.90
22114;DHT22;11223;49.968;9.062;2023-03-23T16:30:26;14.30;99.90
22114;DHT22;11223;49.968;9.062;2023-03-23T16:32:53;14.30;99.90
22114;DHT22;11223;49.968;9.062;2023-03-23T16:35:19;14.20;99.90
22114;DHT22;11223;49.968;9.062;2023-03-23T16:37:54;14.20;99.90
22114;DHT22;11223;49.968;9.062;2023-03-23T16:40:20;14.30;99.90
22114;DHT22;11223;49.968;9.062;2023-03-23T16:42:47;14.40;99.90
22114;DHT22;11223;49.968;9.062;2023-03-23T16:45:14;14.40;99.90
22114;DHT22;11223;49.968;9.062;2023-03-23T16:47:40;14.40;99.90
22114;DHT22;11223;49.968;9.062;2023-03-23T16:50:08;14.40;99.90
22114;DHT22;11223;49.968;9.062;2023-03-23T16:52:39;14.30;99.90
22114;DHT22;11223;49.968;9.062;2023-03-23T16:55:06;14.30;99.90
22114;DHT22;11223;49.968;9.062;2023-03-23T16:57:33;14.30;99.90
22114;DHT22;11223;49.968;9.062;2023-03-23T17:00:00;14.20;99.90
22114;DHT22;11223;49.968;9.062;2023-03-23T17:02:26;14.20;99.90
22114;DHT22;11223;49.968;9.062;2023-03-23T17:04:51;14.10;99.90
22114;DHT22;11223;49.968;9.062;2023-03-23T17:07:17;14.00;99.90
22114;DHT22;11223;49.968;9.062;2023-03-23T17:09:43;13.90;99.90
22114;DHT22;11223;49.968;9.062;2023-03-23T17:12:09;13.90;99.90
22114;DHT22;11223;49.968;9.062;2023-03-23T17:14:35;13.80;99.90
22114;DHT22;11223;49.968;9.062;2023-03-23T17:17:00;13.70;99.90
22114;DHT22;11223;49.968;9.062;2023-03-23T17:19:26;13.60;99.90
22114;DHT22;11223;49.968;9.062;2023-03-23T17:21:51;13.50;99.90
22114;DHT22;11223;49.968;9.062;2023-03-23T17:24:17;13.40;99.90
22114;DHT22;11223;49.968;9.062;2023-03-23T17:26:43;13.40;99.90
22114;DHT22;11223;49.968;9.062;2023-03-23T17:29:08;13.30;99.90